Malaga, California
Current Conditions -  °F | °C
As of 6:53 AM on Wednesday 26 Nov 2014 (Local Time) from KFAT Reporting Station
Haze Haze  
Wind Chill: 42°   Ceiling: Unl
Heat Index: 42°   Visibility: 4mi
Dew Point: 39°   Wind: 0mph
Humidity: 89%   Direction: NA
Pressure: 30.35"   Gusts: NA
Location:  36.6353°N, 119.735°W
Report Text: KFAT 261453Z 00000KT 4SM BR CLR 06/04 A3035 RMK AO2 SLP276 T00560039 53004
Loading
Personal Weather Stations






























Interactive Weather Map New forecast layout! Learn more

10-Day Weather Forecast

Advertisements
Track Severe Weather on mobile